sensor_id;sensor_type;location;lat;lon;timestamp;P1;durP1;ratioP1;P2;durP2;ratioP2
21301;SDS011;10810;48.270;9.996;2022-08-21T00:31:05;3.70;;;1.20;;
21301;SDS011;10810;48.270;9.996;2022-08-21T00:32:52;1.73;;;1.10;;
21301;SDS011;10810;48.270;9.996;2022-08-21T00:38:36;1.35;;;1.00;;
21301;SDS011;10810;48.270;9.996;2022-08-21T00:41:31;2.88;;;1.30;;
21301;SDS011;10810;48.270;9.996;2022-08-21T00:48:34;2.20;;;1.50;;
21301;SDS011;10810;48.270;9.996;2022-08-21T00:53:59;1.80;;;1.30;;
21301;SDS011;10810;48.270;9.996;2022-08-21T00:56:50;1.48;;;0.93;;
21301;SDS011;10810;48.270;9.996;2022-08-21T01:03:06;3.90;;;1.20;;
21301;SDS011;10810;48.270;9.996;2022-08-21T01:09:26;1.93;;;1.10;;
21301;SDS011;10810;48.270;9.996;2022-08-21T01:11:55;2.13;;;1.20;;
21301;SDS011;10810;48.270;9.996;2022-08-21T01:18:25;2.03;;;1.23;;
21301;SDS011;10810;48.270;9.996;2022-08-21T01:24:51;1.95;;;1.40;;
21301;SDS011;10810;48.270;9.996;2022-08-21T01:27:23;2.27;;;1.40;;
21301;SDS011;10810;48.270;9.996;2022-08-21T01:33:43;2.03;;;1.30;;
21301;SDS011;10810;48.270;9.996;2022-08-21T01:36:37;2.30;;;1.37;;
21301;SDS011;10810;48.270;9.996;2022-08-21T01:43:03;1.93;;;1.20;;
21301;SDS011;10810;48.270;9.996;2022-08-21T01:58:06;2.07;;;1.30;;
21301;SDS011;10810;48.270;9.996;2022-08-21T02:17:35;2.27;;;1.47;;
21301;SDS011;10810;48.270;9.996;2022-08-21T02:20:46;1.80;;;1.20;;
21301;SDS011;10810;48.270;9.996;2022-08-21T02:23:44;2.50;;;1.40;;
21301;SDS011;10810;48.270;9.996;2022-08-21T02:26:56;2.00;;;1.33;;
21301;SDS011;10810;48.270;9.996;2022-08-21T02:29:40;2.10;;;1.13;;
21301;SDS011;10810;48.270;9.996;2022-08-21T02:32:38;2.17;;;1.20;;
21301;SDS011;10810;48.270;9.996;2022-08-21T02:35:28;1.50;;;1.10;;
21301;SDS011;10810;48.270;9.996;2022-08-21T02:39:26;1.83;;;1.20;;
21301;SDS011;10810;48.270;9.996;2022-08-21T02:45:16;3.93;;;1.07;;
21301;SDS011;10810;48.270;9.996;2022-08-21T02:54:48;2.23;;;1.30;;
21301;SDS011;10810;48.270;9.996;2022-08-21T03:01:09;4.63;;;1.37;;
21301;SDS011;10810;48.270;9.996;2022-08-21T03:05:53;1.47;;;1.10;;
21301;SDS011;10810;48.270;9.996;2022-08-21T03:07:19;1.77;;;1.10;;
21301;SDS011;10810;48.270;9.996;2022-08-21T03:13:15;1.60;;;1.10;;
21301;SDS011;10810;48.270;9.996;2022-08-21T03:15:49;2.30;;;1.20;;
21301;SDS011;10810;48.270;9.996;2022-08-21T03:18:27;1.77;;;1.07;;
21301;SDS011;10810;48.270;9.996;2022-08-21T03:21:35;1.30;;;1.00;;
21301;SDS011;10810;48.270;9.996;2022-08-21T03:27:21;1.30;;;1.00;;
21301;SDS011;10810;48.270;9.996;2022-08-21T03:30:30;1.10;;;0.80;;
21301;SDS011;10810;48.270;9.996;2022-08-21T03:33:20;1.20;;;0.90;;
21301;SDS011;10810;48.270;9.996;2022-08-21T03:39:57;0.80;;;0.70;;
21301;SDS011;10810;48.270;9.996;2022-08-21T03:42:40;1.00;;;0.70;;
21301;SDS011;10810;48.270;9.996;2022-08-21T03:45:27;0.70;;;0.50;;
21301;SDS011;10810;48.270;9.996;2022-08-21T03:47:59;1.00;;;0.70;;
21301;SDS011;10810;48.270;9.996;2022-08-21T03:51:01;0.70;;;0.60;;
21301;SDS011;10810;48.270;9.996;2022-08-21T03:54:05;0.57;;;0.50;;
21301;SDS011;10810;48.270;9.996;2022-08-21T03:56:38;0.73;;;0.60;;
21301;SDS011;10810;48.270;9.996;2022-08-21T04:02:09;7.97;;;0.70;;
21301;SDS011;10810;48.270;9.996;2022-08-21T04:06:25;0.80;;;0.60;;
21301;SDS011;10810;48.270;9.996;2022-08-21T04:08:08;0.83;;;0.67;;
21301;SDS011;10810;48.270;9.996;2022-08-21T04:11:00;0.70;;;0.70;;
21301;SDS011;10810;48.270;9.996;2022-08-21T04:13:42;3.90;;;0.80;;
21301;SDS011;10810;48.270;9.996;2022-08-21T04:19:10;1.53;;;0.97;;
21301;SDS011;10810;48.270;9.996;2022-08-21T04:22:37;0.90;;;0.63;;
21301;SDS011;10810;48.270;9.996;2022-08-21T04:24:54;1.07;;;0.80;;
21301;SDS011;10810;48.270;9.996;2022-08-21T04:27:38;1.27;;;0.63;;
21301;SDS011;10810;48.270;9.996;2022-08-21T04:30:08;0.63;;;0.60;;
21301;SDS011;10810;48.270;9.996;2022-08-21T04:35:35;0.73;;;0.60;;
21301;SDS011;10810;48.270;9.996;2022-08-21T04:38:04;0.90;;;0.70;;
21301;SDS011;10810;48.270;9.996;2022-08-21T04:41:14;0.90;;;0.60;;
21301;SDS011;10810;48.270;9.996;2022-08-21T04:43:49;0.90;;;0.70;;
21301;SDS011;10810;48.270;9.996;2022-08-21T04:52:27;0.63;;;0.53;;
21301;SDS011;10810;48.270;9.996;2022-08-21T04:54:54;1.40;;;0.70;;
21301;SDS011;10810;48.270;9.996;2022-08-21T04:57:24;0.70;;;0.53;;
21301;SDS011;10810;48.270;9.996;2022-08-21T05:00:18;0.93;;;0.70;;
21301;SDS011;10810;48.270;9.996;2022-08-21T05:02:46;1.20;;;0.70;;
21301;SDS011;10810;48.270;9.996;2022-08-21T05:05:46;0.83;;;0.63;;
21301;SDS011;10810;48.270;9.996;2022-08-21T05:08:22;1.10;;;0.80;;
21301;SDS011;10810;48.270;9.996;2022-08-21T05:10:59;0.77;;;0.70;;
21301;SDS011;10810;48.270;9.996;2022-08-21T05:13:32;1.00;;;0.70;;
21301;SDS011;10810;48.270;9.996;2022-08-21T05:16:00;0.97;;;0.70;;
21301;SDS011;10810;48.270;9.996;2022-08-21T05:18:34;0.70;;;0.70;;
21301;SDS011;10810;48.270;9.996;2022-08-21T05:21:13;1.00;;;0.80;;
21301;SDS011;10810;48.270;9.996;2022-08-21T05:27:17;0.80;;;0.60;;
21301;SDS011;10810;48.270;9.996;2022-08-21T05:29:50;0.70;;;0.60;;
21301;SDS011;10810;48.270;9.996;2022-08-21T05:32:17;1.27;;;0.80;;
21301;SDS011;10810;48.270;9.996;2022-08-21T05:34:46;0.87;;;0.70;;
21301;SDS011;10810;48.270;9.996;2022-08-21T05:37:13;1.10;;;0.80;;
21301;SDS011;10810;48.270;9.996;2022-08-21T05:42:26;1.27;;;0.80;;
21301;SDS011;10810;48.270;9.996;2022-08-21T05:45:07;1.07;;;0.80;;
21301;SDS011;10810;48.270;9.996;2022-08-21T05:47:57;1.10;;;0.80;;
21301;SDS011;10810;48.270;9.996;2022-08-21T05:50:31;1.00;;;0.80;;
21301;SDS011;10810;48.270;9.996;2022-08-21T05:53:19;1.50;;;0.90;;
21301;SDS011;10810;48.270;9.996;2022-08-21T05:59:07;1.47;;;1.00;;
21301;SDS011;10810;48.270;9.996;2022-08-21T06:01:34;1.57;;;0.90;;
21301;SDS011;10810;48.270;9.996;2022-08-21T06:04:02;0.97;;;0.77;;
21301;SDS011;10810;48.270;9.996;2022-08-21T06:06:42;1.47;;;0.90;;
21301;SDS011;10810;48.270;9.996;2022-08-21T06:09:21;1.17;;;0.80;;
21301;SDS011;10810;48.270;9.996;2022-08-21T06:11:53;1.20;;;0.90;;
21301;SDS011;10810;48.270;9.996;2022-08-21T06:14:21;1.43;;;0.90;;
21301;SDS011;10810;48.270;9.996;2022-08-21T06:16:48;1.00;;;0.90;;
21301;SDS011;10810;48.270;9.996;2022-08-21T06:19:17;0.90;;;0.80;;
21301;SDS011;10810;48.270;9.996;2022-08-21T06:21:59;1.27;;;0.90;;
21301;SDS011;10810;48.270;9.996;2022-08-21T06:24:27;1.30;;;0.90;;
21301;SDS011;10810;48.270;9.996;2022-08-21T06:26:55;0.90;;;0.80;;
21301;SDS011;10810;48.270;9.996;2022-08-21T06:29:23;2.23;;;0.87;;
21301;SDS011;10810;48.270;9.996;2022-08-21T06:31:50;1.00;;;0.80;;
21301;SDS011;10810;48.270;9.996;2022-08-21T06:34:17;1.07;;;0.70;;
21301;SDS011;10810;48.270;9.996;2022-08-21T06:36:45;1.63;;;0.90;;
21301;SDS011;10810;48.270;9.996;2022-08-21T06:39:12;2.07;;;0.80;;
21301;SDS011;10810;48.270;9.996;2022-08-21T06:41:39;0.93;;;0.73;;
21301;SDS011;10810;48.270;9.996;2022-08-21T06:44:08;0.88;;;0.80;;
21301;SDS011;10810;48.270;9.996;2022-08-21T06:46:35;1.30;;;0.97;;
21301;SDS011;10810;48.270;9.996;2022-08-21T06:49:15;0.90;;;0.77;;
21301;SDS011;10810;48.270;9.996;2022-08-21T06:51:43;1.57;;;0.80;;
21301;SDS011;10810;48.270;9.996;2022-08-21T06:54:15;2.08;;;1.20;;
21301;SDS011;10810;48.270;9.996;2022-08-21T06:56:42;1.30;;;0.80;;
21301;SDS011;10810;48.270;9.996;2022-08-21T06:59:22;2.07;;;1.00;;
21301;SDS011;10810;48.270;9.996;2022-08-21T07:01:49;0.97;;;0.80;;
21301;SDS011;10810;48.270;9.996;2022-08-21T07:04:18;1.33;;;0.80;;
21301;SDS011;10810;48.270;9.996;2022-08-21T07:07:07;0.90;;;0.70;;
21301;SDS011;10810;48.270;9.996;2022-08-21T07:09:34;0.95;;;0.73;;
21301;SDS011;10810;48.270;9.996;2022-08-21T07:12:03;1.57;;;1.00;;
21301;SDS011;10810;48.270;9.996;2022-08-21T07:14:32;1.57;;;1.00;;
21301;SDS011;10810;48.270;9.996;2022-08-21T07:17:06;1.17;;;0.93;;
21301;SDS011;10810;48.270;9.996;2022-08-21T07:19:37;2.70;;;1.00;;
21301;SDS011;10810;48.270;9.996;2022-08-21T07:22:19;1.25;;;0.90;;
21301;SDS011;10810;48.270;9.996;2022-08-21T07:25:14;1.40;;;1.00;;
21301;SDS011;10810;48.270;9.996;2022-08-21T07:27:42;1.47;;;0.90;;
21301;SDS011;10810;48.270;9.996;2022-08-21T07:33:41;2.47;;;0.90;;
21301;SDS011;10810;48.270;9.996;2022-08-21T07:36:55;1.90;;;1.20;;
21301;SDS011;10810;48.270;9.996;2022-08-21T07:39:58;1.10;;;0.90;;
21301;SDS011;10810;48.270;9.996;2022-08-21T07:42:25;1.38;;;1.00;;
21301;SDS011;10810;48.270;9.996;2022-08-21T07:44:56;1.73;;;1.20;;
21301;SDS011;10810;48.270;9.996;2022-08-21T07:47:30;1.83;;;0.90;;
21301;SDS011;10810;48.270;9.996;2022-08-21T07:50:03;2.58;;;1.10;;
21301;SDS011;10810;48.270;9.996;2022-08-21T07:52:31;1.95;;;1.10;;
21301;SDS011;10810;48.270;9.996;2022-08-21T07:55:00;3.13;;;1.00;;
21301;SDS011;10810;48.270;9.996;2022-08-21T07:57:27;1.63;;;1.00;;
21301;SDS011;10810;48.270;9.996;2022-08-21T08:00:01;1.60;;;1.05;;
21301;SDS011;10810;48.270;9.996;2022-08-21T08:05:22;2.17;;;1.52;;
21301;SDS011;10810;48.270;9.996;2022-08-21T08:08:26;1.60;;;1.00;;
21301;SDS011;10810;48.270;9.996;2022-08-21T08:11:04;2.33;;;1.35;;
21301;SDS011;10810;48.270;9.996;2022-08-21T08:17:00;1.80;;;1.13;;
21301;SDS011;10810;48.270;9.996;2022-08-21T08:20:10;1.90;;;1.30;;
21301;SDS011;10810;48.270;9.996;2022-08-21T08:22:58;2.22;;;1.33;;
21301;SDS011;10810;48.270;9.996;2022-08-21T08:25:30;2.00;;;1.30;;
21301;SDS011;10810;48.270;9.996;2022-08-21T08:28:20;2.50;;;1.48;;
21301;SDS011;10810;48.270;9.996;2022-08-21T08:30:59;2.22;;;1.38;;
21301;SDS011;10810;48.270;9.996;2022-08-21T08:33:30;2.70;;;1.70;;
21301;SDS011;10810;48.270;9.996;2022-08-21T08:36:11;2.67;;;1.73;;
21301;SDS011;10810;48.270;9.996;2022-08-21T08:38:48;2.30;;;1.70;;
21301;SDS011;10810;48.270;9.996;2022-08-21T08:41:25;2.75;;;1.67;;
21301;SDS011;10810;48.270;9.996;2022-08-21T08:43:53;2.72;;;1.80;;
21301;SDS011;10810;48.270;9.996;2022-08-21T08:46:25;2.47;;;1.42;;
21301;SDS011;10810;48.270;9.996;2022-08-21T08:49:06;3.72;;;1.73;;
21301;SDS011;10810;48.270;9.996;2022-08-21T08:51:44;2.30;;;1.70;;
21301;SDS011;10810;48.270;9.996;2022-08-21T08:54:18;3.17;;;2.03;;
21301;SDS011;10810;48.270;9.996;2022-08-21T08:56:57;2.75;;;1.88;;
21301;SDS011;10810;48.270;9.996;2022-08-21T08:59:38;3.67;;;1.80;;
21301;SDS011;10810;48.270;9.996;2022-08-21T09:02:11;3.30;;;2.00;;
21301;SDS011;10810;48.270;9.996;2022-08-21T09:04:44;3.60;;;2.03;;
21301;SDS011;10810;48.270;9.996;2022-08-21T09:07:16;4.25;;;1.80;;
21301;SDS011;10810;48.270;9.996;2022-08-21T09:09:53;3.28;;;1.98;;
21301;SDS011;10810;48.270;9.996;2022-08-21T09:12:33;2.88;;;1.77;;
21301;SDS011;10810;48.270;9.996;2022-08-21T09:15:06;4.47;;;2.13;;
21301;SDS011;10810;48.270;9.996;2022-08-21T09:17:48;3.53;;;1.70;;
21301;SDS011;10810;48.270;9.996;2022-08-21T09:20:36;3.63;;;1.92;;
21301;SDS011;10810;48.270;9.996;2022-08-21T09:23:10;3.35;;;2.13;;
21301;SDS011;10810;48.270;9.996;2022-08-21T09:25:50;2.90;;;1.80;;
21301;SDS011;10810;48.270;9.996;2022-08-21T09:28:30;3.47;;;2.10;;
21301;SDS011;10810;48.270;9.996;2022-08-21T09:30:59;4.38;;;2.15;;
21301;SDS011;10810;48.270;9.996;2022-08-21T09:33:38;5.13;;;2.20;;
21301;SDS011;10810;48.270;9.996;2022-08-21T09:36:33;3.55;;;2.00;;
21301;SDS011;10810;48.270;9.996;2022-08-21T09:39:05;3.97;;;2.20;;
21301;SDS011;10810;48.270;9.996;2022-08-21T09:41:34;4.78;;;2.45;;
21301;SDS011;10810;48.270;9.996;2022-08-21T09:44:27;4.10;;;2.17;;
21301;SDS011;10810;48.270;9.996;2022-08-21T09:47:05;3.85;;;2.08;;
21301;SDS011;10810;48.270;9.996;2022-08-21T09:49:42;2.85;;;1.90;;
21301;SDS011;10810;48.270;9.996;2022-08-21T09:52:21;4.43;;;1.92;;
21301;SDS011;10810;48.270;9.996;2022-08-21T09:54:54;4.03;;;2.10;;
21301;SDS011;10810;48.270;9.996;2022-08-21T09:57:38;5.60;;;2.15;;
21301;SDS011;10810;48.270;9.996;2022-08-21T10:00:24;4.15;;;2.05;;
21301;SDS011;10810;48.270;9.996;2022-08-21T10:02:54;3.97;;;2.00;;
21301;SDS011;10810;48.270;9.996;2022-08-21T10:05:34;4.63;;;2.13;;
21301;SDS011;10810;48.270;9.996;2022-08-21T10:08:04;6.05;;;2.20;;
21301;SDS011;10810;48.270;9.996;2022-08-21T10:10:43;7.32;;;1.90;;
21301;SDS011;10810;48.270;9.996;2022-08-21T10:13:12;4.45;;;2.15;;
21301;SDS011;10810;48.270;9.996;2022-08-21T10:15:46;3.30;;;1.80;;
21301;SDS011;10810;48.270;9.996;2022-08-21T10:18:54;4.55;;;2.17;;
21301;SDS011;10810;48.270;9.996;2022-08-21T10:21:26;3.78;;;1.80;;
21301;SDS011;10810;48.270;9.996;2022-08-21T10:24:00;5.35;;;2.08;;
21301;SDS011;10810;48.270;9.996;2022-08-21T10:26:42;4.95;;;2.00;;
21301;SDS011;10810;48.270;9.996;2022-08-21T10:29:18;6.60;;;2.05;;
21301;SDS011;10810;48.270;9.996;2022-08-21T10:31:59;3.70;;;2.03;;
21301;SDS011;10810;48.270;9.996;2022-08-21T10:34:40;5.05;;;1.75;;
21301;SDS011;10810;48.270;9.996;2022-08-21T10:37:22;3.38;;;1.80;;
21301;SDS011;10810;48.270;9.996;2022-08-21T10:40:02;3.88;;;1.75;;
21301;SDS011;10810;48.270;9.996;2022-08-21T10:42:46;8.77;;;2.22;;
21301;SDS011;10810;48.270;9.996;2022-08-21T10:45:29;3.05;;;1.80;;
21301;SDS011;10810;48.270;9.996;2022-08-21T10:48:13;5.78;;;2.03;;
21301;SDS011;10810;48.270;9.996;2022-08-21T10:50:53;3.78;;;2.05;;
21301;SDS011;10810;48.270;9.996;2022-08-21T10:53:34;3.78;;;1.73;;
21301;SDS011;10810;48.270;9.996;2022-08-21T10:56:17;3.45;;;1.98;;
21301;SDS011;10810;48.270;9.996;2022-08-21T10:59:07;2.92;;;1.92;;
21301;SDS011;10810;48.270;9.996;2022-08-21T11:01:53;2.70;;;1.65;;
21301;SDS011;10810;48.270;9.996;2022-08-21T11:04:28;3.80;;;1.90;;
21301;SDS011;10810;48.270;9.996;2022-08-21T11:07:02;3.25;;;1.90;;
21301;SDS011;10810;48.270;9.996;2022-08-21T11:09:41;3.30;;;1.98;;
21301;SDS011;10810;48.270;9.996;2022-08-21T11:12:16;3.72;;;1.90;;
21301;SDS011;10810;48.270;9.996;2022-08-21T11:14:53;4.57;;;2.08;;
21301;SDS011;10810;48.270;9.996;2022-08-21T11:17:28;3.25;;;2.03;;
21301;SDS011;10810;48.270;9.996;2022-08-21T11:20:05;2.83;;;1.60;;
21301;SDS011;10810;48.270;9.996;2022-08-21T11:23:04;2.85;;;1.80;;
21301;SDS011;10810;48.270;9.996;2022-08-21T11:26:41;2.92;;;1.90;;
21301;SDS011;10810;48.270;9.996;2022-08-21T11:29:10;3.03;;;1.85;;
21301;SDS011;10810;48.270;9.996;2022-08-21T11:32:22;3.67;;;2.00;;
21301;SDS011;10810;48.270;9.996;2022-08-21T11:35:08;3.35;;;1.92;;
21301;SDS011;10810;48.270;9.996;2022-08-21T11:37:54;3.90;;;1.80;;
21301;SDS011;10810;48.270;9.996;2022-08-21T11:40:39;3.88;;;1.85;;
21301;SDS011;10810;48.270;9.996;2022-08-21T11:43:29;2.55;;;1.60;;
21301;SDS011;10810;48.270;9.996;2022-08-21T11:46:10;4.03;;;1.80;;
21301;SDS011;10810;48.270;9.996;2022-08-21T11:48:49;3.78;;;1.90;;
21301;SDS011;10810;48.270;9.996;2022-08-21T11:51:28;2.65;;;1.60;;
21301;SDS011;10810;48.270;9.996;2022-08-21T11:54:01;4.03;;;2.00;;
21301;SDS011;10810;48.270;9.996;2022-08-21T11:56:36;3.35;;;1.90;;
21301;SDS011;10810;48.270;9.996;2022-08-21T11:59:08;3.47;;;1.77;;
21301;SDS011;10810;48.270;9.996;2022-08-21T12:01:39;2.92;;;1.77;;
21301;SDS011;10810;48.270;9.996;2022-08-21T12:04:22;4.95;;;1.88;;
21301;SDS011;10810;48.270;9.996;2022-08-21T12:06:55;3.13;;;1.83;;
21301;SDS011;10810;48.270;9.996;2022-08-21T12:09:30;3.97;;;1.88;;
21301;SDS011;10810;48.270;9.996;2022-08-21T12:12:03;2.70;;;1.60;;
21301;SDS011;10810;48.270;9.996;2022-08-21T12:14:36;2.83;;;1.80;;
21301;SDS011;10810;48.270;9.996;2022-08-21T12:17:06;2.50;;;1.75;;
21301;SDS011;10810;48.270;9.996;2022-08-21T12:19:58;2.55;;;1.83;;
21301;SDS011;10810;48.270;9.996;2022-08-21T12:22:37;3.75;;;1.92;;
21301;SDS011;10810;48.270;9.996;2022-08-21T12:25:13;3.25;;;1.63;;
21301;SDS011;10810;48.270;9.996;2022-08-21T12:27:45;2.83;;;1.73;;
21301;SDS011;10810;48.270;9.996;2022-08-21T12:30:22;3.60;;;2.05;;
21301;SDS011;10810;48.270;9.996;2022-08-21T12:32:59;1.73;;;1.48;;
21301;SDS011;10810;48.270;9.996;2022-08-21T12:35:32;2.38;;;1.45;;
21301;SDS011;10810;48.270;9.996;2022-08-21T12:38:06;4.68;;;1.85;;
21301;SDS011;10810;48.270;9.996;2022-08-21T12:40:47;3.30;;;1.70;;
21301;SDS011;10810;48.270;9.996;2022-08-21T12:43:21;3.03;;;1.80;;
21301;SDS011;10810;48.270;9.996;2022-08-21T12:45:59;3.53;;;1.70;;
21301;SDS011;10810;48.270;9.996;2022-08-21T12:48:31;3.50;;;1.70;;
21301;SDS011;10810;48.270;9.996;2022-08-21T12:51:07;2.53;;;1.60;;
21301;SDS011;10810;48.270;9.996;2022-08-21T12:53:40;3.30;;;1.85;;
21301;SDS011;10810;48.270;9.996;2022-08-21T12:56:31;2.60;;;1.77;;
21301;SDS011;10810;48.270;9.996;2022-08-21T12:59:07;2.83;;;1.65;;
21301;SDS011;10810;48.270;9.996;2022-08-21T13:01:45;3.72;;;1.65;;
21301;SDS011;10810;48.270;9.996;2022-08-21T13:04:18;6.32;;;1.77;;
21301;SDS011;10810;48.270;9.996;2022-08-21T13:07:00;3.05;;;1.70;;
21301;SDS011;10810;48.270;9.996;2022-08-21T13:09:28;4.05;;;2.08;;
21301;SDS011;10810;48.270;9.996;2022-08-21T13:11:57;3.05;;;1.67;;
21301;SDS011;10810;48.270;9.996;2022-08-21T13:14:28;3.25;;;1.63;;
21301;SDS011;10810;48.270;9.996;2022-08-21T13:16:58;3.35;;;1.67;;
21301;SDS011;10810;48.270;9.996;2022-08-21T13:19:27;2.42;;;1.85;;
21301;SDS011;10810;48.270;9.996;2022-08-21T13:22:03;3.97;;;1.70;;
21301;SDS011;10810;48.270;9.996;2022-08-21T13:24:31;2.63;;;1.50;;
21301;SDS011;10810;48.270;9.996;2022-08-21T13:27:14;3.60;;;1.83;;
21301;SDS011;10810;48.270;9.996;2022-08-21T13:29:47;2.35;;;1.40;;
21301;SDS011;10810;48.270;9.996;2022-08-21T13:32:18;2.60;;;1.70;;
21301;SDS011;10810;48.270;9.996;2022-08-21T13:34:49;3.08;;;1.75;;
21301;SDS011;10810;48.270;9.996;2022-08-21T13:40:14;3.17;;;1.50;;
21301;SDS011;10810;48.270;9.996;2022-08-21T13:42:44;2.60;;;1.40;;
21301;SDS011;10810;48.270;9.996;2022-08-21T13:45:15;3.38;;;1.63;;
21301;SDS011;10810;48.270;9.996;2022-08-21T13:47:49;2.90;;;1.60;;
21301;SDS011;10810;48.270;9.996;2022-08-21T13:50:17;3.40;;;1.73;;
21301;SDS011;10810;48.270;9.996;2022-08-21T13:52:55;3.38;;;1.85;;
21301;SDS011;10810;48.270;9.996;2022-08-21T13:55:34;2.47;;;1.67;;
21301;SDS011;10810;48.270;9.996;2022-08-21T13:58:23;3.20;;;1.67;;
21301;SDS011;10810;48.270;9.996;2022-08-21T14:00:53;3.60;;;1.63;;
21301;SDS011;10810;48.270;9.996;2022-08-21T14:03:32;2.70;;;1.65;;
21301;SDS011;10810;48.270;9.996;2022-08-21T14:06:20;2.85;;;1.67;;
21301;SDS011;10810;48.270;9.996;2022-08-21T14:12:44;4.88;;;2.03;;
21301;SDS011;10810;48.270;9.996;2022-08-21T14:15:39;2.90;;;1.60;;
21301;SDS011;10810;48.270;9.996;2022-08-21T14:18:09;2.50;;;1.42;;
21301;SDS011;10810;48.270;9.996;2022-08-21T14:21:03;2.72;;;1.58;;
21301;SDS011;10810;48.270;9.996;2022-08-21T14:23:34;2.75;;;1.70;;
21301;SDS011;10810;48.270;9.996;2022-08-21T14:26:03;3.63;;;1.85;;
21301;SDS011;10810;48.270;9.996;2022-08-21T14:31:32;2.72;;;1.58;;
21301;SDS011;10810;48.270;9.996;2022-08-21T14:35:42;3.17;;;1.58;;
21301;SDS011;10810;48.270;9.996;2022-08-21T14:37:01;5.82;;;1.65;;
21301;SDS011;10810;48.270;9.996;2022-08-21T14:39:51;2.75;;;1.60;;
21301;SDS011;10810;48.270;9.996;2022-08-21T14:42:29;1.92;;;1.30;;
21301;SDS011;10810;48.270;9.996;2022-08-21T14:45:10;2.90;;;1.52;;
21301;SDS011;10810;48.270;9.996;2022-08-21T14:47:42;3.00;;;1.70;;
21301;SDS011;10810;48.270;9.996;2022-08-21T14:50:09;2.45;;;1.45;;
21301;SDS011;10810;48.270;9.996;2022-08-21T14:52:37;2.45;;;1.58;;
21301;SDS011;10810;48.270;9.996;2022-08-21T14:55:05;2.28;;;1.48;;
21301;SDS011;10810;48.270;9.996;2022-08-21T14:57:44;4.35;;;1.77;;
21301;SDS011;10810;48.270;9.996;2022-08-21T15:03:07;2.95;;;1.70;;
21301;SDS011;10810;48.270;9.996;2022-08-21T15:05:36;3.03;;;1.50;;
21301;SDS011;10810;48.270;9.996;2022-08-21T15:08:10;2.67;;;1.70;;
21301;SDS011;10810;48.270;9.996;2022-08-21T15:10:38;3.38;;;1.60;;
21301;SDS011;10810;48.270;9.996;2022-08-21T15:13:11;2.53;;;1.70;;
21301;SDS011;10810;48.270;9.996;2022-08-21T15:16:07;2.65;;;1.67;;
21301;SDS011;10810;48.270;9.996;2022-08-21T15:18:38;3.63;;;1.70;;
21301;SDS011;10810;48.270;9.996;2022-08-21T15:21:08;2.28;;;1.48;;
21301;SDS011;10810;48.270;9.996;2022-08-21T15:23:38;1.98;;;1.35;;
21301;SDS011;10810;48.270;9.996;2022-08-21T15:26:39;2.28;;;1.30;;
21301;SDS011;10810;48.270;9.996;2022-08-21T15:29:16;2.75;;;1.25;;
21301;SDS011;10810;48.270;9.996;2022-08-21T15:32:00;2.80;;;1.48;;
21301;SDS011;10810;48.270;9.996;2022-08-21T15:34:29;2.47;;;1.67;;
21301;SDS011;10810;48.270;9.996;2022-08-21T15:36:57;2.92;;;1.65;;
21301;SDS011;10810;48.270;9.996;2022-08-21T15:39:35;2.55;;;1.48;;
21301;SDS011;10810;48.270;9.996;2022-08-21T15:42:05;2.92;;;1.70;;
21301;SDS011;10810;48.270;9.996;2022-08-21T15:44:46;2.95;;;1.55;;
21301;SDS011;10810;48.270;9.996;2022-08-21T15:47:28;2.83;;;1.50;;
21301;SDS011;10810;48.270;9.996;2022-08-21T15:50:03;3.67;;;2.05;;
21301;SDS011;10810;48.270;9.996;2022-08-21T15:52:34;3.38;;;1.27;;
21301;SDS011;10810;48.270;9.996;2022-08-21T15:55:02;2.97;;;1.50;;
21301;SDS011;10810;48.270;9.996;2022-08-21T15:57:30;2.83;;;1.40;;
21301;SDS011;10810;48.270;9.996;2022-08-21T15:59:58;3.20;;;1.50;;
21301;SDS011;10810;48.270;9.996;2022-08-21T16:02:46;2.20;;;1.40;;
21301;SDS011;10810;48.270;9.996;2022-08-21T16:05:15;2.38;;;1.30;;
21301;SDS011;10810;48.270;9.996;2022-08-21T16:07:44;2.40;;;1.50;;
21301;SDS011;10810;48.270;9.996;2022-08-21T16:10:12;3.10;;;1.42;;
21301;SDS011;10810;48.270;9.996;2022-08-21T16:12:42;2.90;;;1.50;;
21301;SDS011;10810;48.270;9.996;2022-08-21T16:15:17;2.65;;;1.58;;
21301;SDS011;10810;48.270;9.996;2022-08-21T16:17:47;3.15;;;1.70;;
21301;SDS011;10810;48.270;9.996;2022-08-21T16:20:16;3.42;;;1.65;;
21301;SDS011;10810;48.270;9.996;2022-08-21T16:22:46;2.33;;;1.35;;
21301;SDS011;10810;48.270;9.996;2022-08-21T16:25:14;2.00;;;1.48;;
21301;SDS011;10810;48.270;9.996;2022-08-21T16:27:42;3.53;;;1.40;;
21301;SDS011;10810;48.270;9.996;2022-08-21T16:30:14;3.40;;;1.90;;
21301;SDS011;10810;48.270;9.996;2022-08-21T16:32:51;2.92;;;1.63;;
21301;SDS011;10810;48.270;9.996;2022-08-21T16:35:34;2.65;;;1.75;;
21301;SDS011;10810;48.270;9.996;2022-08-21T16:38:20;3.13;;;1.65;;
21301;SDS011;10810;48.270;9.996;2022-08-21T16:40:58;4.13;;;2.05;;
21301;SDS011;10810;48.270;9.996;2022-08-21T16:43:29;2.85;;;1.60;;
21301;SDS011;10810;48.270;9.996;2022-08-21T16:46:07;2.70;;;1.55;;
21301;SDS011;10810;48.270;9.996;2022-08-21T16:48:47;2.22;;;1.75;;
21301;SDS011;10810;48.270;9.996;2022-08-21T16:54:22;2.92;;;1.80;;
21301;SDS011;10810;48.270;9.996;2022-08-21T16:56:52;3.30;;;1.63;;
21301;SDS011;10810;48.270;9.996;2022-08-21T16:59:34;2.83;;;1.67;;
21301;SDS011;10810;48.270;9.996;2022-08-21T17:02:13;3.95;;;1.80;;
21301;SDS011;10810;48.270;9.996;2022-08-21T17:05:12;2.88;;;1.80;;
21301;SDS011;10810;48.270;9.996;2022-08-21T17:07:56;4.15;;;1.63;;
21301;SDS011;10810;48.270;9.996;2022-08-21T17:10:23;3.30;;;1.75;;
21301;SDS011;10810;48.270;9.996;2022-08-21T17:12:55;3.08;;;1.70;;
21301;SDS011;10810;48.270;9.996;2022-08-21T17:15:27;2.85;;;1.55;;
21301;SDS011;10810;48.270;9.996;2022-08-21T17:18:20;16.40;;;7.53;;
21301;SDS011;10810;48.270;9.996;2022-08-21T17:21:14;32.25;;;13.75;;
21301;SDS011;10810;48.270;9.996;2022-08-21T17:23:58;30.95;;;13.10;;
21301;SDS011;10810;48.270;9.996;2022-08-21T17:26:42;33.58;;;14.23;;
21301;SDS011;10810;48.270;9.996;2022-08-21T17:29:17;31.98;;;12.07;;
21301;SDS011;10810;48.270;9.996;2022-08-21T17:32:02;26.52;;;11.07;;
21301;SDS011;10810;48.270;9.996;2022-08-21T17:34:36;20.25;;;8.68;;
21301;SDS011;10810;48.270;9.996;2022-08-21T17:37:13;20.90;;;7.72;;
21301;SDS011;10810;48.270;9.996;2022-08-21T17:39:42;15.63;;;7.13;;
21301;SDS011;10810;48.270;9.996;2022-08-21T17:42:19;14.48;;;6.00;;
21301;SDS011;10810;48.270;9.996;2022-08-21T17:44:53;13.93;;;5.47;;
21301;SDS011;10810;48.270;9.996;2022-08-21T17:47:22;12.50;;;4.72;;
21301;SDS011;10810;48.270;9.996;2022-08-21T17:49:50;7.90;;;3.33;;
21301;SDS011;10810;48.270;9.996;2022-08-21T17:52:20;6.45;;;3.25;;
21301;SDS011;10810;48.270;9.996;2022-08-21T17:54:50;3.88;;;2.30;;
21301;SDS011;10810;48.270;9.996;2022-08-21T17:57:20;3.22;;;1.90;;
21301;SDS011;10810;48.270;9.996;2022-08-21T17:59:53;3.65;;;1.90;;
21301;SDS011;10810;48.270;9.996;2022-08-21T18:02:24;4.90;;;2.03;;
21301;SDS011;10810;48.270;9.996;2022-08-21T18:04:54;5.07;;;1.80;;
21301;SDS011;10810;48.270;9.996;2022-08-21T18:07:23;4.25;;;1.90;;
21301;SDS011;10810;48.270;9.996;2022-08-21T18:09:53;2.75;;;1.65;;
21301;SDS011;10810;48.270;9.996;2022-08-21T18:12:20;2.38;;;1.70;;
21301;SDS011;10810;48.270;9.996;2022-08-21T18:14:53;2.50;;;1.75;;
21301;SDS011;10810;48.270;9.996;2022-08-21T18:17:37;3.05;;;1.65;;
21301;SDS011;10810;48.270;9.996;2022-08-21T18:20:17;3.72;;;1.85;;
21301;SDS011;10810;48.270;9.996;2022-08-21T18:22:57;3.20;;;1.83;;
21301;SDS011;10810;48.270;9.996;2022-08-21T18:25:26;3.33;;;1.90;;
21301;SDS011;10810;48.270;9.996;2022-08-21T18:27:56;3.13;;;1.70;;
21301;SDS011;10810;48.270;9.996;2022-08-21T18:30:43;2.25;;;1.63;;
21301;SDS011;10810;48.270;9.996;2022-08-21T18:33:18;3.10;;;1.67;;
21301;SDS011;10810;48.270;9.996;2022-08-21T18:35:56;4.82;;;1.67;;
21301;SDS011;10810;48.270;9.996;2022-08-21T18:39:03;2.88;;;1.65;;